Location Glendale, AZ, US

ob KWR6634 270030Z AUTO 25003G05KT OVC250 29/02 A2980 RMK SLPNO 

2019.03.27 0030 UTC
Wind from the WSW (247 degrees) at 4.0 MPH (3 KT) gusting to 6.0 MPH (5 KT)
Visibility    Mile(s)
Sky Conditions  overcast
Temperature 84.60 F (29 C)
Dew Point 35.03 F (2 C)
Relative Humidity 17%
Pressure   29.80 in. Hg (1009 hPa)
Rain  0.00 in.
Daily Rain  in.

Station Name  My Glendale Arizona Weather Station
Longitude, Latitude  -112.20133199999998, 33.58645
Elevation 1180
Station URL www.myglendalewxs.com
Software Type VWS V15.00